Time;durP1;ratioP1;P1;durP2;ratioP2;P2;SDS_P1;SDS_P2;PMS_P1;PMS_P2;Temp;Humidity;BMP_temperature;BMP_pressure;BME280_temperature;BME280_humidity;BME280_pressure;Samples;Min_cycle;Max_cycle;Signal;HPM_P1;HPM_P2
2023/07/30 00:01:40;;;;;;;3.05;2.00;;;;;;;21.84;61.06;65283.66;5075520;28;20219;-52
2023/07/30 00:04:05;;;;;;;2.08;1.88;;;;;;;21.72;61.29;65272.94;5093494;28;20192;-53
2023/07/30 00:06:31;;;;;;;3.10;2.00;;;;;;;21.64;61.98;65267.19;5095337;28;20210;-50
2023/07/30 00:08:57;;;;;;;4.40;2.22;;;;;;;21.65;62.81;65265.72;5093079;28;20283;-53
2023/07/30 00:11:22;;;;;;;3.05;1.92;;;;;;;21.68;63.20;65271.06;5093149;28;20258;-52
2023/07/30 00:13:48;;;;;;;2.45;2.13;;;;;;;21.72;63.19;65270.91;5091945;28;20212;-50
2023/07/30 00:16:13;;;;;;;2.42;2.22;;;;;;;21.72;63.36;65272.94;5091528;28;20722;-54
2023/07/30 00:18:39;;;;;;;2.35;2.03;;;;;;;21.73;63.19;65272.00;5092777;28;20204;-52
2023/07/30 00:21:04;;;;;;;2.10;1.90;;;;;;;21.67;64.13;65264.84;5093280;28;20204;-51
2023/07/30 00:23:30;;;;;;;1.88;1.70;;;;;;;21.72;64.10;65275.50;5092821;28;20290;-52
2023/07/30 00:25:55;;;;;;;3.83;2.08;;;;;;;21.71;63.70;65274.41;5094030;28;20251;-61
2023/07/30 00:28:20;;;;;;;2.75;2.20;;;;;;;21.73;63.88;65271.47;5093781;28;20206;-54
2023/07/30 00:30:46;;;;;;;2.15;1.95;;;;;;;21.83;64.09;65282.00;5074968;28;20208;-50
2023/07/30 00:33:12;;;;;;;2.28;1.80;;;;;;;21.87;63.68;65289.00;5093684;28;20689;-54
2023/07/30 00:35:38;;;;;;;3.35;2.35;;;;;;;21.83;62.52;65282.56;5091648;28;20585;-53
2023/07/30 00:38:03;;;;;;;2.40;2.08;;;;;;;21.71;61.95;65269.81;5075385;28;20196;-51
2023/07/30 00:40:29;;;;;;;2.20;2.00;;;;;;;21.49;62.07;65250.59;5093422;28;20188;-54
2023/07/30 00:42:55;;;;;;;3.72;2.42;;;;;;;21.49;62.19;65250.06;5093293;28;20196;-50
2023/07/30 00:45:21;;;;;;;2.30;2.03;;;;;;;21.51;63.42;65250.25;5092979;28;20222;-51
2023/07/30 00:47:47;;;;;;;2.10;1.88;;;;;;;21.51;62.77;65249.72;5094143;28;20316;-52
2023/07/30 00:50:14;;;;;;;2.70;2.15;;;;;;;21.38;62.77;65235.88;5093556;28;20207;-50
2023/07/30 00:52:40;;;;;;;2.40;2.13;;;;;;;21.25;62.60;65224.06;5092680;28;20289;-50
2023/07/30 00:55:07;;;;;;;1.90;1.80;;;;;;;21.13;62.64;65207.69;5075120;28;20690;-53
2023/07/30 00:57:34;;;;;;;3.25;1.98;;;;;;;20.96;62.41;65191.97;5093104;28;20204;-52
2023/07/30 01:00:03;;;;;;;1.75;1.65;;;;;;;20.83;63.48;65175.03;5093458;28;20204;-53
2023/07/30 01:02:29;;;;;;;1.85;1.70;;;;;;;20.70;63.61;65160.69;5093187;28;20635;-51
2023/07/30 01:04:54;;;;;;;3.05;1.67;;;;;;;20.63;64.94;65152.94;5092117;28;20200;-50
2023/07/30 01:07:20;;;;;;;2.17;1.90;;;;;;;20.64;65.53;65154.03;5093168;28;20223;-52
2023/07/30 01:09:45;;;;;;;2.10;1.88;;;;;;;20.54;66.38;65140.44;5095597;28;20298;-51
2023/07/30 01:12:11;;;;;;;2.85;1.58;;;;;;;20.53;66.60;65139.31;5093843;28;20208;-55
2023/07/30 01:14:37;;;;;;;3.13;2.42;;;;;;;20.54;66.63;65143.00;5092482;28;20233;-53
2023/07/30 01:17:11;;;;;;;2.03;1.80;;;;;;;20.57;66.66;65146.84;5093417;28;20247;-53
2023/07/30 01:19:36;;;;;;;1.85;1.75;;;;;;;20.48;66.70;65133.81;5093652;28;20188;-55
2023/07/30 01:22:03;;;;;;;1.88;1.77;;;;;;;20.44;67.02;65131.94;5093095;28;20207;-53
2023/07/30 01:24:29;;;;;;;2.40;2.10;;;;;;;20.39;67.32;65126.41;5091701;28;20282;-54
2023/07/30 01:27:01;;;;;;;1.80;1.65;;;;;;;20.31;67.40;65117.56;5093027;28;20208;-53
2023/07/30 01:29:45;;;;;;;2.10;1.90;;;;;;;20.46;67.53;65134.16;5092416;28;20202;-54
2023/07/30 01:32:12;;;;;;;2.55;1.77;;;;;;;20.38;66.81;65125.84;5092534;28;20227;-50
2023/07/30 01:34:47;;;;;;;2.25;2.05;;;;;;;20.35;67.55;65122.53;5091614;28;20556;-50
2023/07/30 01:37:13;;;;;;;2.25;1.73;;;;;;;20.37;67.73;65124.19;5092699;28;20220;-51
2023/07/30 01:39:42;;;;;;;4.03;2.40;;;;;;;20.23;68.84;65111.28;5091647;28;20253;-51
2023/07/30 01:42:08;;;;;;;1.98;1.80;;;;;;;20.22;69.12;65107.63;5092573;28;20208;-51
2023/07/30 01:44:33;;;;;;;2.55;2.35;;;;;;;20.34;68.49;65121.44;5074846;28;20692;-51
2023/07/30 01:46:59;;;;;;;1.88;1.73;;;;;;;20.28;69.38;65111.69;5093084;28;20250;-50
2023/07/30 01:49:25;;;;;;;3.47;2.30;;;;;;;20.24;69.04;65112.41;5092760;28;20307;-52
2023/07/30 01:51:51;;;;;;;2.15;1.98;;;;;;;20.31;69.51;65118.13;5091734;28;20216;-52
2023/07/30 01:54:16;;;;;;;2.83;2.38;;;;;;;20.38;68.88;65125.31;5091980;28;20208;-50
2023/07/30 01:56:42;;;;;;;3.13;2.45;;;;;;;20.43;69.49;65130.81;5092094;28;20216;-51
2023/07/30 01:59:07;;;;;;;2.17;1.98;;;;;;;20.43;68.22;65128.25;5091837;28;20288;-51
2023/07/30 02:01:32;;;;;;;2.13;1.92;;;;;;;20.37;68.91;65121.63;5091592;28;20235;-54
2023/07/30 02:03:59;;;;;;;2.50;2.30;;;;;;;20.40;69.08;65128.06;5091715;28;20199;-52
2023/07/30 02:06:24;;;;;;;2.35;2.03;;;;;;;20.45;68.79;65136.16;5091423;28;20227;-50
2023/07/30 02:08:50;;;;;;;2.50;2.13;;;;;;;20.37;68.51;65124.75;5091756;28;20208;-50
2023/07/30 02:11:15;;;;;;;3.35;1.98;;;;;;;20.33;68.21;65120.34;5094824;28;20321;-51
2023/07/30 02:13:42;;;;;;;5.32;2.63;;;;;;;20.24;68.98;65109.84;5075712;28;20216;-58
2023/07/30 02:16:09;;;;;;;3.20;2.35;;;;;;;20.33;67.99;65120.34;5076353;28;20652;-58
2023/07/30 02:18:35;;;;;;;2.22;2.00;;;;;;;20.27;67.58;65116.25;5094880;28;20261;-50
2023/07/30 02:21:00;;;;;;;3.10;2.35;;;;;;;20.27;67.66;65110.59;5094465;28;20704;-53
2023/07/30 02:23:25;;;;;;;2.60;2.40;;;;;;;20.17;68.30;65099.50;5094768;28;20568;-52
2023/07/30 02:25:51;;;;;;;4.45;2.70;;;;;;;20.22;68.44;65110.19;5095186;28;20259;-51
2023/07/30 02:28:17;;;;;;;2.35;2.15;;;;;;;20.23;67.30;65111.84;5095217;28;20200;-52
2023/07/30 02:30:42;;;;;;;2.25;2.05;;;;;;;20.14;68.42;65096.22;5095729;28;20215;-50
2023/07/30 02:33:08;;;;;;;2.20;2.00;;;;;;;20.14;68.15;65099.31;5094704;28;20207;-50
2023/07/30 02:35:33;;;;;;;3.05;2.13;;;;;;;20.04;68.61;65086.25;5094229;28;20241;-52
2023/07/30 02:37:58;;;;;;;3.10;2.58;;;;;;;20.09;68.21;65093.78;5094780;28;20220;-54
2023/07/30 02:40:24;;;;;;;3.92;2.38;;;;;;;20.10;67.82;65095.44;5094557;28;20274;-49
2023/07/30 02:42:51;;;;;;;2.08;1.88;;;;;;;20.14;67.43;65096.22;5094912;28;20215;-50
2023/07/30 02:45:17;;;;;;;2.95;2.13;;;;;;;20.17;67.21;65102.06;5094562;28;20202;-51
2023/07/30 02:47:43;;;;;;;2.50;2.10;;;;;;;20.09;67.30;65091.78;5093866;28;20298;-51
2023/07/30 02:50:09;;;;;;;5.78;2.25;;;;;;;19.99;68.08;65085.88;5094771;28;20595;-50
2023/07/30 02:52:34;;;;;;;3.03;2.05;;;;;;;20.09;67.12;65094.34;5094818;28;20563;-53
2023/07/30 02:55:00;;;;;;;2.83;2.22;;;;;;;20.06;68.73;65090.47;5095403;28;20277;-50
2023/07/30 02:57:26;;;;;;;3.85;2.78;;;;;;;20.07;68.87;65091.59;5094553;28;20204;-53
2023/07/30 02:59:51;;;;;;;6.43;2.10;;;;;;;20.29;68.34;65117.91;5094057;28;20355;-54
2023/07/30 03:02:16;;;;;;;6.10;2.55;;;;;;;20.31;66.95;65120.13;5095548;28;20237;-50
2023/07/30 03:04:42;;;;;;;6.13;2.50;;;;;;;20.25;67.29;65110.94;5094489;28;20256;-54
2023/07/30 03:07:09;;;;;;;7.97;2.97;;;;;;;20.19;67.52;65104.28;5095859;28;20211;-50
2023/07/30 03:09:34;;;;;;;5.10;2.42;;;;;;;20.14;68.08;65098.78;5094722;28;20358;-50
2023/07/30 03:11:59;;;;;;;5.40;2.47;;;;;;;20.07;68.06;65092.16;5095064;28;20239;-59
2023/07/30 03:14:25;;;;;;;5.57;2.55;;;;;;;19.99;68.42;65083.31;5093455;28;20192;-49
2023/07/30 03:16:50;;;;;;;4.70;2.60;;;;;;;19.90;69.46;65070.78;5093527;28;20277;-54
2023/07/30 03:19:16;;;;;;;2.42;2.20;;;;;;;19.86;69.77;65068.94;5093606;28;20228;-53
2023/07/30 03:21:41;;;;;;;2.58;2.20;;;;;;;19.90;69.94;65073.34;5093707;28;20200;-50
2023/07/30 03:24:07;;;;;;;4.28;2.38;;;;;;;19.87;70.13;65070.06;5093875;28;20202;-55
2023/07/30 03:26:33;;;;;;;2.45;2.25;;;;;;;19.83;70.68;65063.06;5093898;28;20216;-56
2023/07/30 03:28:58;;;;;;;2.13;1.90;;;;;;;19.81;70.71;65060.31;5093023;28;20200;-50
2023/07/30 03:31:24;;;;;;;2.78;2.00;;;;;;;19.67;71.33;65050.53;5092239;28;20215;-51
2023/07/30 03:33:49;;;;;;;3.45;2.70;;;;;;;19.40;72.50;65017.59;5092587;28;20619;-51
2023/07/30 03:36:15;;;;;;;3.05;2.75;;;;;;;19.29;73.45;65005.97;5091921;28;20231;-52
2023/07/30 03:38:41;;;;;;;4.05;2.30;;;;;;;19.21;74.27;64994.59;5092201;28;20313;-52
2023/07/30 03:41:07;;;;;;;4.60;2.15;;;;;;;19.05;75.74;64979.47;5091797;28;20264;-51
2023/07/30 03:43:33;;;;;;;3.42;2.05;;;;;;;18.89;76.67;64961.81;5092255;28;20275;-55
2023/07/30 03:45:59;;;;;;;2.75;2.08;;;;;;;18.72;78.17;64943.63;5091710;28;20227;-53
2023/07/30 03:48:25;;;;;;;2.63;2.42;;;;;;;18.59;79.58;64929.28;5091511;28;20262;-53
2023/07/30 03:50:50;;;;;;;2.50;2.30;;;;;;;18.47;81.42;64918.03;5091630;28;20328;-53
2023/07/30 03:53:15;;;;;;;3.22;2.45;;;;;;;18.49;81.64;64920.81;5091820;28;20192;-51
2023/07/30 03:55:41;;;;;;;4.15;2.72;;;;;;;18.43;82.69;64909.63;5073574;28;20286;-51
2023/07/30 03:58:06;;;;;;;3.20;2.00;;;;;;;18.40;83.56;64908.84;5092051;28;20666;-52
2023/07/30 04:00:32;;;;;;;2.25;1.98;;;;;;;18.42;83.63;64911.06;5091916;28;20196;-53
2023/07/30 04:02:58;;;;;;;2.75;2.50;;;;;;;18.46;84.12;64914.41;5091460;28;20219;-52
2023/07/30 04:05:23;;;;;;;2.72;2.30;;;;;;;18.59;83.82;64928.72;5091387;28;20624;-53
2023/07/30 04:07:49;;;;;;;2.97;2.72;;;;;;;18.57;84.00;64927.06;5091726;28;20204;-53
2023/07/30 04:10:15;;;;;;;3.22;2.40;;;;;;;18.75;83.40;64946.38;5090434;28;20200;-49
2023/07/30 04:12:41;;;;;;;4.00;3.10;;;;;;;18.80;83.58;64954.47;5072919;28;20333;-54
2023/07/30 04:15:07;;;;;;;4.47;2.47;;;;;;;18.84;83.65;64958.88;5091858;28;20727;-53
2023/07/30 04:17:32;;;;;;;3.42;2.72;;;;;;;18.84;83.89;64956.31;5091272;28;20212;-52
2023/07/30 04:19:58;;;;;;;3.60;3.00;;;;;;;19.02;82.93;64973.63;5091216;28;20595;-53
2023/07/30 04:22:23;;;;;;;3.22;2.80;;;;;;;19.04;82.90;64978.94;5091163;28;20257;-50
2023/07/30 04:24:49;;;;;;;2.95;2.72;;;;;;;18.94;83.67;64967.34;5090821;28;20188;-50
2023/07/30 04:27:15;;;;;;;3.17;2.72;;;;;;;18.97;83.72;64973.22;5090977;28;20572;-51
2023/07/30 04:29:41;;;;;;;4.07;3.22;;;;;;;18.95;84.16;64968.44;5073183;28;20216;-53
2023/07/30 04:32:07;;;;;;;3.22;2.65;;;;;;;18.99;84.14;64973.41;5091840;28;20222;-55
2023/07/30 04:34:33;;;;;;;2.90;2.60;;;;;;;19.20;83.08;64993.50;5091514;28;20524;-51
2023/07/30 04:36:59;;;;;;;4.15;3.00;;;;;;;19.20;83.49;64993.50;5091395;28;20324;-50
2023/07/30 04:39:24;;;;;;;3.42;2.60;;;;;;;19.34;82.96;65013.53;5091662;28;20218;-53
2023/07/30 04:41:49;;;;;;;3.20;2.70;;;;;;;19.29;83.89;65008.53;5090713;28;20216;-55
2023/07/30 04:44:15;;;;;;;5.03;2.80;;;;;;;19.35;83.39;65012.63;5090746;28;20227;-51
2023/07/30 04:46:41;;;;;;;3.30;3.00;;;;;;;19.39;83.02;65016.50;5091257;28;20716;-53
2023/07/30 04:49:06;;;;;;;5.68;3.00;;;;;;;19.42;82.91;65017.25;5091003;28;20653;-52
2023/07/30 04:51:32;;;;;;;3.33;3.03;;;;;;;19.38;83.13;65013.38;5090570;28;20207;-52
2023/07/30 04:53:57;;;;;;;4.25;3.25;;;;;;;19.29;83.74;65005.97;5090872;28;20223;-56
2023/07/30 04:56:22;;;;;;;3.20;2.90;;;;;;;19.46;83.05;65024.78;5090640;28;20265;-50
2023/07/30 04:58:48;;;;;;;3.20;2.83;;;;;;;19.38;83.69;65013.38;5090893;28;20257;-59
2023/07/30 05:01:13;;;;;;;3.78;2.97;;;;;;;19.59;82.81;65036.03;5090493;28;20216;-55
2023/07/30 05:03:39;;;;;;;3.28;3.03;;;;;;;19.63;82.12;65041.00;5090377;28;20639;-53
2023/07/30 05:06:05;;;;;;;3.00;2.67;;;;;;;19.73;81.76;65051.47;5090726;28;20661;-54
2023/07/30 05:08:30;;;;;;;3.38;2.83;;;;;;;19.84;81.69;65066.72;5090390;28;20231;-53
2023/07/30 05:10:55;;;;;;;7.38;3.05;;;;;;;19.78;81.04;65062.66;5097407;22;20203;-55
2023/07/30 05:13:21;;;;;;;3.08;2.72;;;;;;;19.99;81.08;65085.88;5069572;28;20213;-50
2023/07/30 05:15:46;;;;;;;3.38;3.08;;;;;;;20.05;80.71;65089.94;5070108;28;20219;-51
2023/07/30 05:18:13;;;;;;;3.97;3.35;;;;;;;20.16;79.95;65103.53;5070153;28;20234;-54
2023/07/30 05:20:39;;;;;;;7.50;3.05;;;;;;;20.25;79.33;65108.38;5070017;28;20232;-53
2023/07/30 05:23:06;;;;;;;4.10;3.60;;;;;;;20.00;80.14;65084.41;5052018;28;20208;-54
2023/07/30 05:25:32;;;;;;;4.03;3.30;;;;;;;20.35;78.72;65119.41;5069804;28;20201;-52
2023/07/30 05:27:58;;;;;;;3.97;2.97;;;;;;;20.43;77.79;65128.25;5070122;28;20211;-53
2023/07/30 05:30:24;;;;;;;5.30;3.10;;;;;;;20.54;77.46;65146.09;5070354;28;20196;-50
2023/07/30 05:32:49;;;;;;;3.80;3.17;;;;;;;20.49;78.12;65137.44;5069794;28;20242;-50
2023/07/30 05:35:15;;;;;;;3.45;2.92;;;;;;;20.70;78.06;65160.69;5051975;28;20249;-49
2023/07/30 05:37:40;;;;;;;3.60;3.22;;;;;;;20.76;76.68;65167.31;5070521;28;20201;-50
2023/07/30 05:40:07;;;;;;;4.97;3.65;;;;;;;20.77;77.15;65168.41;5052360;28;20177;-53
2023/07/30 05:42:33;;;;;;;7.38;3.53;;;;;;;21.02;77.70;65195.50;5070784;28;20339;-50
2023/07/30 05:44:58;;;;;;;4.53;2.90;;;;;;;21.17;75.50;65212.66;5072521;28;20236;-53
2023/07/30 05:47:24;;;;;;;7.47;3.63;;;;;;;21.23;74.29;65214.16;5074086;28;20252;-53
2023/07/30 05:49:50;;;;;;;5.82;2.97;;;;;;;21.29;73.30;65225.91;5073353;28;20207;-51
2023/07/30 05:52:15;;;;;;;4.50;3.00;;;;;;;21.11;74.02;65205.47;5073933;28;20215;-53
2023/07/30 05:54:40;;;;;;;7.38;3.55;;;;;;;21.02;74.13;65192.94;5073030;28;20229;-51
2023/07/30 05:57:06;;;;;;;4.05;2.78;;;;;;;21.14;74.69;65208.78;5073124;28;20691;-51
2023/07/30 05:59:32;;;;;;;3.45;3.15;;;;;;;21.37;74.07;65232.19;5073191;28;20637;-51
2023/07/30 06:02:02;;;;;;;5.10;3.38;;;;;;;21.41;72.89;65239.19;5073732;28;20209;-55
2023/07/30 06:04:28;;;;;;;5.70;3.53;;;;;;;21.47;74.12;65242.72;5073516;28;20225;-51
2023/07/30 06:06:53;;;;;;;4.13;3.40;;;;;;;21.67;72.22;65267.94;5073327;28;20236;-51
2023/07/30 06:09:19;;;;;;;5.85;3.10;;;;;;;21.69;71.12;65267.59;5072829;28;20205;-51
2023/07/30 06:11:44;;;;;;;3.13;2.83;;;;;;;21.75;71.64;65273.69;5073191;28;20205;-50
2023/07/30 06:14:10;;;;;;;5.22;3.38;;;;;;;21.82;71.10;65280.88;5073192;28;20213;-51
2023/07/30 06:16:35;;;;;;;5.80;3.25;;;;;;;21.79;71.37;65278.13;5072994;28;20208;-50
2023/07/30 06:19:01;;;;;;;4.25;3.22;;;;;;;21.95;70.77;65298.41;5073264;28;20231;-52
2023/07/30 06:21:26;;;;;;;4.82;3.30;;;;;;;22.01;70.76;65304.50;5072809;28;20240;-50
2023/07/30 06:23:51;;;;;;;5.10;3.72;;;;;;;22.06;70.75;65310.03;5072725;28;20200;-51
2023/07/30 06:26:17;;;;;;;5.68;3.17;;;;;;;21.88;70.71;65290.66;5072558;28;20698;-51
2023/07/30 06:28:42;;;;;;;69.50;48.55;;;;;;;21.99;70.68;65302.28;5073351;28;20208;-50
2023/07/30 06:31:09;;;;;;;10.73;6.93;;;;;;;22.29;69.41;65332.91;5072428;28;20274;-50
2023/07/30 06:33:34;;;;;;;5.20;3.08;;;;;;;22.11;69.25;65315.56;5072855;28;20644;-51
2023/07/30 06:35:59;;;;;;;24.05;18.38;;;;;;;22.38;69.85;65348.56;5073116;28;20292;-50
2023/07/30 06:38:25;;;;;;;3.70;3.40;;;;;;;22.24;68.49;65327.38;5055114;28;20212;-50
2023/07/30 06:40:51;;;;;;;5.15;4.47;;;;;;;22.37;68.62;65342.31;5073333;28;20201;-54
2023/07/30 06:43:16;;;;;;;16.17;10.43;;;;;;;22.66;68.93;65371.34;5072683;28;20283;-51
2023/07/30 06:45:42;;;;;;;4.70;3.20;;;;;;;22.64;66.88;65371.69;5072743;28;20287;-49
2023/07/30 06:48:07;;;;;;;4.80;3.17;;;;;;;22.80;65.68;65391.97;5072347;28;20199;-58
2023/07/30 06:50:32;;;;;;;3.38;3.03;;;;;;;22.82;65.49;65391.63;5072499;28;20201;-53
2023/07/30 06:52:58;;;;;;;4.00;3.35;;;;;;;23.07;64.65;65421.31;5072631;28;20805;-54
2023/07/30 06:55:23;;;;;;;7.15;3.78;;;;;;;23.09;64.17;65420.94;5069853;28;20216;-51
2023/07/30 06:57:49;;;;;;;6.40;3.22;;;;;;;23.03;64.45;65414.31;5072858;28;20208;-53
2023/07/30 07:00:21;;;;;;;6.88;4.07;;;;;;;23.16;63.26;65431.28;5070976;28;20274;-53
2023/07/30 07:02:49;;;;;;;4.68;3.58;;;;;;;23.37;63.36;65454.59;5072155;28;20252;-51
2023/07/30 07:05:15;;;;;;;8.35;3.78;;;;;;;23.55;62.52;65471.97;5072653;28;20728;-50
2023/07/30 07:07:40;;;;;;;5.38;3.65;;;;;;;23.90;61.00;65510.75;5072134;28;20219;-51
2023/07/30 07:10:06;;;;;;;4.43;3.42;;;;;;;23.80;58.67;65497.06;5072365;28;20674;-54
2023/07/30 07:12:32;;;;;;;5.55;3.40;;;;;;;23.85;58.42;65507.22;5072400;28;20217;-50
2023/07/30 07:15:01;;;;;;;3.92;3.45;;;;;;;23.70;58.70;65488.00;5072860;28;20585;-55
2023/07/30 07:17:26;;;;;;;4.63;3.25;;;;;;;23.75;58.96;65494.13;5072449;28;20590;-56
2023/07/30 07:19:52;;;;;;;7.75;2.92;;;;;;;23.82;59.29;65501.88;5072077;28;20705;-52
2023/07/30 07:22:18;;;;;;;3.65;3.00;;;;;;;23.91;58.83;65513.88;5072312;28;20212;-54
2023/07/30 07:24:44;;;;;;;5.28;3.03;;;;;;;24.26;57.74;65550.09;5071988;28;20236;-54
2023/07/30 07:27:10;;;;;;;3.72;3.15;;;;;;;24.46;58.41;65571.75;5072665;28;20208;-51
2023/07/30 07:29:35;;;;;;;5.75;3.13;;;;;;;24.74;56.14;65603.38;5072040;28;20748;-58
2023/07/30 07:32:01;;;;;;;3.88;3.20;;;;;;;24.80;55.28;65610.03;5071461;28;20204;-58
2023/07/30 07:34:28;;;;;;;4.63;3.00;;;;;;;24.93;55.89;65623.91;5071754;28;20216;-52
2023/07/30 07:36:53;;;;;;;5.85;3.30;;;;;;;25.07;55.54;65638.88;5072388;28;20209;-50
2023/07/30 07:39:19;;;;;;;3.90;3.47;;;;;;;25.33;55.67;65668.28;5072047;28;20284;-53
2023/07/30 07:41:45;;;;;;;6.78;3.35;;;;;;;25.47;52.87;65681.25;5053830;28;20660;-52
2023/07/30 07:44:10;;;;;;;5.78;3.30;;;;;;;25.38;52.16;65673.84;5071490;28;20200;-51
2023/07/30 07:46:36;;;;;;;4.32;3.45;;;;;;;25.36;52.60;65673.63;5053489;28;20220;-55
2023/07/30 07:49:01;;;;;;;3.97;3.63;;;;;;;25.33;52.25;65668.28;5071459;28;20193;-51
2023/07/30 07:51:27;;;;;;;8.25;3.67;;;;;;;25.51;52.51;65690.31;5071584;28;20286;-52
2023/07/30 07:53:53;;;;;;;5.07;3.78;;;;;;;25.70;52.31;65708.81;5071668;28;20291;-52
2023/07/30 07:56:18;;;;;;;4.85;3.92;;;;;;;25.96;52.78;65737.69;5053435;28;20228;-51
2023/07/30 07:58:44;;;;;;;6.90;4.25;;;;;;;26.33;52.12;65778.81;5053261;28;20337;-51
2023/07/30 08:01:09;;;;;;;5.30;3.33;;;;;;;26.36;51.15;65779.00;5071492;28;20638;-54
2023/07/30 08:03:35;;;;;;;5.43;3.70;;;;;;;26.42;50.75;65788.81;5053136;28;20754;-50
2023/07/30 08:06:00;;;;;;;7.88;4.28;;;;;;;26.72;50.87;65819.03;5071191;28;20215;-52
2023/07/30 08:08:27;;;;;;;4.05;3.60;;;;;;;26.85;50.45;65833.47;5071522;28;20255;-52
2023/07/30 08:10:54;;;;;;;5.63;3.97;;;;;;;26.86;50.09;65839.75;5071252;28;20208;-52
2023/07/30 08:13:20;;;;;;;4.72;4.25;;;;;;;26.93;49.78;65844.94;5071414;28;20568;-56
2023/07/30 08:15:45;;;;;;;6.78;3.60;;;;;;;26.72;48.94;65821.63;5071410;28;20693;-54
2023/07/30 08:18:11;;;;;;;5.82;4.18;;;;;;;26.84;48.35;65834.38;5071230;28;20185;-54
2023/07/30 08:20:37;;;;;;;4.07;3.67;;;;;;;27.30;47.96;65886.09;5071092;28;20192;-55
2023/07/30 08:23:02;;;;;;;4.45;3.70;;;;;;;27.20;46.54;65874.41;5071262;28;20211;-55
2023/07/30 08:25:28;;;;;;;6.30;3.95;;;;;;;27.46;47.29;65900.75;5052920;28;20204;-55
2023/07/30 08:27:54;;;;;;;6.10;3.50;;;;;;;27.70;44.50;65930.03;5053317;28;20682;-52
2023/07/30 08:30:19;;;;;;;5.90;4.20;;;;;;;27.63;44.82;65921.69;5070709;28;20203;-51
2023/07/30 08:32:45;;;;;;;4.13;3.72;;;;;;;27.65;46.39;65921.88;5070744;28;20215;-51
2023/07/30 08:35:10;;;;;;;5.63;3.83;;;;;;;27.72;44.55;65927.06;5070872;28;20220;-54
2023/07/30 08:37:36;;;;;;;3.63;3.33;;;;;;;27.95;45.13;65957.28;5070836;28;20212;-54
2023/07/30 08:40:03;;;;;;;4.45;3.10;;;;;;;28.04;44.45;65967.28;5071160;28;20211;-54
2023/07/30 08:42:29;;;;;;;4.18;3.42;;;;;;;27.78;43.21;65938.34;5071397;28;20216;-53
2023/07/30 08:44:54;;;;;;;4.05;3.20;;;;;;;28.00;41.75;65962.84;5071504;28;20696;-54
2023/07/30 08:47:20;;;;;;;5.18;3.25;;;;;;;27.58;42.69;65916.69;5071107;28;20205;-53
2023/07/30 08:49:45;;;;;;;3.92;3.47;;;;;;;27.69;43.81;65928.34;5070712;28;20208;-54
2023/07/30 08:52:11;;;;;;;3.72;3.22;;;;;;;27.97;43.77;65959.53;5071657;28;20528;-52
2023/07/30 08:54:39;;;;;;;4.00;3.60;;;;;;;28.05;43.85;65963.78;5069248;28;20266;-52
2023/07/30 08:57:05;;;;;;;6.35;3.25;;;;;;;28.02;44.18;65962.47;5071412;28;20204;-55
2023/07/30 08:59:37;;;;;;;4.70;3.60;;;;;;;28.31;43.14;65994.19;5070780;28;20205;-51
2023/07/30 09:02:04;;;;;;;4.47;3.33;;;;;;;28.49;43.66;66014.78;5053120;28;20244;-51
2023/07/30 09:04:34;;;;;;;5.30;2.95;;;;;;;28.75;41.47;66043.19;5070391;28;20205;-51
2023/07/30 09:07:00;;;;;;;4.88;3.60;;;;;;;29.09;40.77;66080.50;5070119;28;20220;-53
2023/07/30 09:09:26;;;;;;;3.53;3.03;;;;;;;28.96;39.24;66064.53;5070239;28;20777;-51
2023/07/30 09:11:55;;;;;;;5.32;3.65;;;;;;;29.20;40.33;66095.91;5070905;28;20219;-52
2023/07/30 09:14:23;;;;;;;4.82;2.97;;;;;;;29.42;40.36;66115.22;5052803;28;20650;-51
2023/07/30 09:16:56;;;;;;;5.78;3.90;;;;;;;29.40;40.35;66118.19;5069382;28;20213;-51
2023/07/30 09:19:21;;;;;;;6.03;4.78;;;;;;;29.90;40.41;66168.13;5072031;28;20196;-52
2023/07/30 09:21:47;;;;;;;3.75;3.40;;;;;;;29.83;39.63;66163.50;5074646;28;20204;-53
2023/07/30 09:24:22;;;;;;;5.95;3.30;;;;;;;29.50;37.70;66128.75;5056420;28;20197;-52
2023/07/30 09:26:47;;;;;;;4.68;3.63;;;;;;;29.72;37.95;66150.69;5073948;28;20285;-53
2023/07/30 09:29:13;;;;;;;4.72;3.75;;;;;;;30.30;38.92;66217.38;5073840;28;20204;-53
2023/07/30 09:31:51;;;;;;;3.83;3.13;;;;;;;30.39;38.13;66227.97;5073959;28;20677;-57
2023/07/30 09:34:22;;;;;;;6.97;3.33;;;;;;;30.50;37.42;66240.22;5073498;28;20242;-53
2023/07/30 09:36:51;;;;;;;4.80;3.28;;;;;;;30.97;37.34;66289.50;5055896;28;20219;-53
2023/07/30 09:39:19;;;;;;;3.28;2.97;;;;;;;30.95;36.38;66284.66;5073668;28;20208;-53
2023/07/30 09:41:45;;;;;;;4.20;3.40;;;;;;;31.04;35.45;66296.75;5074288;28;20216;-52
2023/07/30 09:44:19;;;;;;;3.42;3.20;;;;;;;31.59;34.26;66360.16;5073493;28;20197;-53
2023/07/30 09:46:48;;;;;;;4.78;3.28;;;;;;;31.67;33.34;66366.50;5073561;28;20216;-50
2023/07/30 09:49:14;;;;;;;4.93;2.67;;;;;;;31.80;34.66;66378.94;5073785;28;20204;-52
2023/07/30 09:51:40;;;;;;;5.10;2.95;;;;;;;31.69;32.52;66368.72;5072933;28;20299;-54
2023/07/30 09:54:12;;;;;;;3.42;3.03;;;;;;;31.26;33.23;66321.84;5073549;28;20280;-53
2023/07/30 09:56:40;;;;;;;3.30;2.83;;;;;;;31.84;32.91;66385.44;5073708;28;20734;-54
2023/07/30 09:59:07;;;;;;;3.95;3.35;;;;;;;32.16;34.06;66421.19;5073606;28;20733;-52
2023/07/30 10:01:45;;;;;;;4.78;3.67;;;;;;;32.05;32.87;66412.09;5055398;28;20274;-53
2023/07/30 10:04:12;;;;;;;3.25;2.95;;;;;;;32.32;33.08;66439.06;5073366;28;20273;-53
2023/07/30 10:06:49;;;;;;;5.32;3.65;;;;;;;32.45;32.33;66450.97;5072699;28;20652;-54
2023/07/30 10:09:18;;;;;;;3.28;2.97;;;;;;;32.80;30.73;66490.06;5073640;28;20193;-53
2023/07/30 10:11:46;;;;;;;4.43;3.13;;;;;;;31.76;31.04;66379.13;5071617;28;20213;-52
2023/07/30 10:14:14;;;;;;;4.72;3.20;;;;;;;31.73;30.55;66371.13;5073166;28;20220;-52
2023/07/30 10:16:49;;;;;;;3.83;3.33;;;;;;;32.43;30.52;66448.72;5055069;28;20244;-55
2023/07/30 10:19:16;;;;;;;3.38;2.85;;;;;;;32.56;30.46;66462.72;5073190;28;20264;-52
2023/07/30 10:21:42;;;;;;;4.00;3.60;;;;;;;32.58;30.65;66465.50;5073396;28;20221;-59
2023/07/30 10:24:09;;;;;;;5.60;2.92;;;;;;;32.74;30.29;66488.59;5072964;28;20184;-51
2023/07/30 10:26:36;;;;;;;3.30;2.83;;;;;;;32.89;30.65;66502.16;5072784;28;20788;-50
2023/07/30 10:29:20;;;;;;;4.78;3.30;;;;;;;33.08;29.53;66520.22;5072842;28;20314;-57
2023/07/30 10:31:57;;;;;;;4.63;3.67;;;;;;;32.82;30.52;66491.75;5071169;28;20713;-53
2023/07/30 10:34:27;;;;;;;3.10;2.90;;;;;;;33.03;30.96;66517.81;5072873;28;20597;-50
2023/07/30 10:36:55;;;;;;;4.05;3.70;;;;;;;32.98;30.26;66509.63;5071698;28;20216;-51
2023/07/30 10:39:26;;;;;;;3.42;3.05;;;;;;;33.81;29.69;66605.00;5072430;28;20284;-51
2023/07/30 10:41:55;;;;;;;3.05;2.85;;;;;;;34.37;28.70;66664.44;5072848;28;20283;-52
2023/07/30 10:44:34;;;;;;;3.83;3.50;;;;;;;33.76;28.98;66598.84;5072612;28;20197;-53
2023/07/30 10:47:01;;;;;;;3.92;3.40;;;;;;;33.18;29.43;66531.97;5072093;28;20220;-53
2023/07/30 10:49:27;;;;;;;4.05;3.00;;;;;;;32.74;30.06;66485.97;5072763;28;20205;-55
2023/07/30 10:51:55;;;;;;;4.75;3.60;;;;;;;33.12;30.30;66527.31;5072758;28;20216;-53
2023/07/30 10:54:22;;;;;;;5.45;3.60;;;;;;;33.93;31.35;66619.91;5072707;28;20208;-52
2023/07/30 10:56:47;;;;;;;4.00;2.92;;;;;;;34.62;30.05;66695.03;5072957;28;20215;-51
2023/07/30 10:59:15;;;;;;;5.05;3.20;;;;;;;34.34;29.71;66658.47;5037861;28;20200;-54
2023/07/30 11:01:43;;;;;;;5.80;3.33;;;;;;;34.72;28.24;66705.69;5054516;28;20704;-52
2023/07/30 11:04:11;;;;;;;3.50;3.20;;;;;;;34.81;28.61;66715.72;5072858;28;20204;-50
2023/07/30 11:06:38;;;;;;;6.15;3.92;;;;;;;34.87;29.34;66716.66;5073022;28;20775;-51
2023/07/30 11:09:04;;;;;;;5.88;3.70;;;;;;;34.06;29.11;66629.78;5071203;28;20686;-51
2023/07/30 11:11:31;;;;;;;4.07;3.58;;;;;;;35.05;28.92;66739.44;5072478;28;20216;-54
2023/07/30 11:13:57;;;;;;;4.88;3.33;;;;;;;35.05;28.74;66742.06;5071919;28;20686;-53
2023/07/30 11:16:23;;;;;;;4.00;3.60;;;;;;;35.08;28.31;66745.41;5072352;28;20584;-50
2023/07/30 11:18:50;;;;;;;4.40;3.63;;;;;;;35.52;28.36;66792.03;5054364;28;20196;-51
2023/07/30 11:21:17;;;;;;;5.93;3.97;;;;;;;35.75;26.47;66817.22;5054033;28;20694;-51
2023/07/30 11:23:44;;;;;;;3.83;3.53;;;;;;;35.39;27.25;66780.09;5072373;28;20266;-51
2023/07/30 11:26:18;;;;;;;4.00;3.67;;;;;;;34.48;27.64;66676.75;5072023;28;20220;-51
2023/07/30 11:28:44;;;;;;;3.63;3.33;;;;;;;34.20;27.46;66647.50;5070570;28;20240;-51
2023/07/30 11:31:17;;;;;;;5.50;3.67;;;;;;;34.62;27.33;66692.41;5071880;28;20247;-56